sensor_id;sensor_type;location;lat;lon;timestamp;P1;durP1;ratioP1;P2;durP2;ratioP2
67278;SDS011;54193;53.746;10.058;2023-02-28T00:00:27;12.55;;;5.88;;
67278;SDS011;54193;53.746;10.058;2023-02-28T00:03:13;14.00;;;6.10;;
67278;SDS011;54193;53.746;10.058;2023-02-28T00:05:59;12.60;;;6.30;;
67278;SDS011;54193;53.746;10.058;2023-02-28T00:08:44;15.05;;;6.78;;
67278;SDS011;54193;53.746;10.058;2023-02-28T00:11:30;11.35;;;6.22;;
67278;SDS011;54193;53.746;10.058;2023-02-28T00:14:15;13.45;;;6.47;;
67278;SDS011;54193;53.746;10.058;2023-02-28T00:17:01;13.73;;;6.00;;
67278;SDS011;54193;53.746;10.058;2023-02-28T00:19:47;12.00;;;5.80;;
67278;SDS011;54193;53.746;10.058;2023-02-28T00:22:34;14.07;;;6.10;;
67278;SDS011;54193;53.746;10.058;2023-02-28T00:25:20;14.53;;;5.80;;
67278;SDS011;54193;53.746;10.058;2023-02-28T00:28:08;13.95;;;6.05;;
67278;SDS011;54193;53.746;10.058;2023-02-28T00:30:53;14.43;;;6.70;;
67278;SDS011;54193;53.746;10.058;2023-02-28T00:33:39;14.32;;;6.40;;
67278;SDS011;54193;53.746;10.058;2023-02-28T00:36:25;15.27;;;6.95;;
67278;SDS011;54193;53.746;10.058;2023-02-28T00:39:10;15.30;;;7.32;;
67278;SDS011;54193;53.746;10.058;2023-02-28T00:41:56;18.70;;;7.50;;
67278;SDS011;54193;53.746;10.058;2023-02-28T00:44:42;13.73;;;6.47;;
67278;SDS011;54193;53.746;10.058;2023-02-28T00:47:27;14.85;;;6.78;;
67278;SDS011;54193;53.746;10.058;2023-02-28T00:50:13;18.63;;;7.57;;
67278;SDS011;54193;53.746;10.058;2023-02-28T00:52:59;16.13;;;7.23;;
67278;SDS011;54193;53.746;10.058;2023-02-28T00:55:44;16.15;;;7.10;;
67278;SDS011;54193;53.746;10.058;2023-02-28T00:58:30;17.05;;;7.35;;
67278;SDS011;54193;53.746;10.058;2023-02-28T01:01:15;14.65;;;7.20;;
67278;SDS011;54193;53.746;10.058;2023-02-28T01:04:01;17.67;;;7.55;;
67278;SDS011;54193;53.746;10.058;2023-02-28T01:06:47;19.98;;;7.15;;
67278;SDS011;54193;53.746;10.058;2023-02-28T01:09:33;16.50;;;7.55;;
67278;SDS011;54193;53.746;10.058;2023-02-28T01:12:18;15.00;;;7.73;;
67278;SDS011;54193;53.746;10.058;2023-02-28T01:15:04;18.55;;;7.35;;
67278;SDS011;54193;53.746;10.058;2023-02-28T01:17:50;16.42;;;7.63;;
67278;SDS011;54193;53.746;10.058;2023-02-28T01:20:36;16.50;;;7.57;;
67278;SDS011;54193;53.746;10.058;2023-02-28T01:23:23;17.08;;;7.10;;
67278;SDS011;54193;53.746;10.058;2023-02-28T01:26:10;17.80;;;7.32;;
67278;SDS011;54193;53.746;10.058;2023-02-28T01:28:59;18.35;;;7.97;;
67278;SDS011;54193;53.746;10.058;2023-02-28T01:31:44;16.40;;;7.25;;
67278;SDS011;54193;53.746;10.058;2023-02-28T01:34:30;17.85;;;7.28;;
67278;SDS011;54193;53.746;10.058;2023-02-28T01:37:16;15.90;;;7.28;;
67278;SDS011;54193;53.746;10.058;2023-02-28T01:40:01;17.03;;;7.17;;
67278;SDS011;54193;53.746;10.058;2023-02-28T01:42:48;14.77;;;7.05;;
67278;SDS011;54193;53.746;10.058;2023-02-28T01:45:33;17.98;;;8.30;;
67278;SDS011;54193;53.746;10.058;2023-02-28T01:48:21;15.53;;;7.20;;
67278;SDS011;54193;53.746;10.058;2023-02-28T01:51:19;16.65;;;7.25;;
67278;SDS011;54193;53.746;10.058;2023-02-28T01:54:11;16.80;;;7.32;;
67278;SDS011;54193;53.746;10.058;2023-02-28T01:57:04;14.68;;;7.10;;
67278;SDS011;54193;53.746;10.058;2023-02-28T01:59:56;11.05;;;5.70;;
67278;SDS011;54193;53.746;10.058;2023-02-28T02:02:46;15.52;;;7.18;;
67278;SDS011;54193;53.746;10.058;2023-02-28T02:05:34;14.13;;;6.65;;
67278;SDS011;54193;53.746;10.058;2023-02-28T02:08:25;16.20;;;6.63;;
67278;SDS011;54193;53.746;10.058;2023-02-28T02:11:13;13.75;;;6.03;;
67278;SDS011;54193;53.746;10.058;2023-02-28T02:17:32;17.77;;;7.10;;
67278;SDS011;54193;53.746;10.058;2023-02-28T02:21:10;18.45;;;6.53;;
67278;SDS011;54193;53.746;10.058;2023-02-28T02:26:58;12.70;;;5.90;;
67278;SDS011;54193;53.746;10.058;2023-02-28T02:30:01;16.20;;;5.70;;
67278;SDS011;54193;53.746;10.058;2023-02-28T02:33:23;15.88;;;6.38;;
67278;SDS011;54193;53.746;10.058;2023-02-28T02:39:19;15.63;;;6.40;;
67278;SDS011;54193;53.746;10.058;2023-02-28T02:42:18;14.32;;;6.10;;
67278;SDS011;54193;53.746;10.058;2023-02-28T02:45:14;12.80;;;5.07;;
67278;SDS011;54193;53.746;10.058;2023-02-28T02:48:09;12.83;;;5.70;;
67278;SDS011;54193;53.746;10.058;2023-02-28T02:50:59;12.38;;;5.60;;
67278;SDS011;54193;53.746;10.058;2023-02-28T02:56:36;11.50;;;5.25;;
67278;SDS011;54193;53.746;10.058;2023-02-28T02:59:26;12.13;;;5.70;;
67278;SDS011;54193;53.746;10.058;2023-02-28T03:02:14;11.93;;;5.53;;
67278;SDS011;54193;53.746;10.058;2023-02-28T03:05:07;13.18;;;5.45;;
67278;SDS011;54193;53.746;10.058;2023-02-28T03:07:59;11.53;;;5.27;;
67278;SDS011;54193;53.746;10.058;2023-02-28T03:10:50;9.88;;;4.22;;
67278;SDS011;54193;53.746;10.058;2023-02-28T03:23:54;13.60;;;5.65;;
67278;SDS011;54193;53.746;10.058;2023-02-28T03:26:50;14.07;;;6.00;;
67278;SDS011;54193;53.746;10.058;2023-02-28T03:29:42;12.18;;;5.05;;
67278;SDS011;54193;53.746;10.058;2023-02-28T03:32:37;13.88;;;5.63;;
67278;SDS011;54193;53.746;10.058;2023-02-28T03:35:32;11.40;;;4.63;;
67278;SDS011;54193;53.746;10.058;2023-02-28T03:41:10;11.45;;;4.55;;
67278;SDS011;54193;53.746;10.058;2023-02-28T03:44:03;12.60;;;4.97;;
67278;SDS011;54193;53.746;10.058;2023-02-28T03:46:56;11.87;;;4.57;;
67278;SDS011;54193;53.746;10.058;2023-02-28T03:49:50;11.60;;;5.15;;
67278;SDS011;54193;53.746;10.058;2023-02-28T03:52:45;15.23;;;5.55;;
67278;SDS011;54193;53.746;10.058;2023-02-28T03:55:45;17.83;;;5.88;;
67278;SDS011;54193;53.746;10.058;2023-02-28T03:58:51;14.65;;;6.63;;
67278;SDS011;54193;53.746;10.058;2023-02-28T04:01:43;13.38;;;6.22;;
67278;SDS011;54193;53.746;10.058;2023-02-28T04:04:31;12.65;;;6.13;;
67278;SDS011;54193;53.746;10.058;2023-02-28T04:07:16;13.93;;;6.27;;
67278;SDS011;54193;53.746;10.058;2023-02-28T04:10:03;11.57;;;5.90;;
67278;SDS011;54193;53.746;10.058;2023-02-28T04:12:49;13.07;;;5.95;;
67278;SDS011;54193;53.746;10.058;2023-02-28T04:15:35;15.83;;;6.37;;
67278;SDS011;54193;53.746;10.058;2023-02-28T04:18:22;16.15;;;6.03;;
67278;SDS011;54193;53.746;10.058;2023-02-28T04:21:07;13.35;;;6.18;;
67278;SDS011;54193;53.746;10.058;2023-02-28T04:23:53;14.73;;;6.32;;
67278;SDS011;54193;53.746;10.058;2023-02-28T04:26:39;14.13;;;6.38;;
67278;SDS011;54193;53.746;10.058;2023-02-28T04:29:27;17.95;;;6.15;;
67278;SDS011;54193;53.746;10.058;2023-02-28T04:32:17;13.43;;;5.72;;
67278;SDS011;54193;53.746;10.058;2023-02-28T04:35:03;12.77;;;6.00;;
67278;SDS011;54193;53.746;10.058;2023-02-28T04:37:49;12.40;;;6.22;;
67278;SDS011;54193;53.746;10.058;2023-02-28T04:40:35;13.45;;;5.63;;
67278;SDS011;54193;53.746;10.058;2023-02-28T04:43:20;13.13;;;5.90;;
67278;SDS011;54193;53.746;10.058;2023-02-28T04:46:06;12.20;;;5.85;;
67278;SDS011;54193;53.746;10.058;2023-02-28T04:48:52;12.10;;;5.45;;
67278;SDS011;54193;53.746;10.058;2023-02-28T04:51:39;13.75;;;5.75;;
67278;SDS011;54193;53.746;10.058;2023-02-28T04:54:25;13.13;;;5.60;;
67278;SDS011;54193;53.746;10.058;2023-02-28T04:57:11;13.52;;;5.60;;
67278;SDS011;54193;53.746;10.058;2023-02-28T04:59:56;15.23;;;6.78;;
67278;SDS011;54193;53.746;10.058;2023-02-28T05:02:42;15.67;;;6.63;;
67278;SDS011;54193;53.746;10.058;2023-02-28T05:05:29;13.82;;;6.47;;
67278;SDS011;54193;53.746;10.058;2023-02-28T05:08:15;17.48;;;7.10;;
67278;SDS011;54193;53.746;10.058;2023-02-28T05:11:01;13.77;;;6.23;;
67278;SDS011;54193;53.746;10.058;2023-02-28T05:13:47;17.27;;;6.90;;
67278;SDS011;54193;53.746;10.058;2023-02-28T05:16:33;15.90;;;6.45;;
67278;SDS011;54193;53.746;10.058;2023-02-28T05:19:19;13.88;;;5.95;;
67278;SDS011;54193;53.746;10.058;2023-02-28T05:22:10;13.85;;;5.75;;
67278;SDS011;54193;53.746;10.058;2023-02-28T05:24:58;12.18;;;5.85;;
67278;SDS011;54193;53.746;10.058;2023-02-28T05:27:44;12.85;;;5.28;;
67278;SDS011;54193;53.746;10.058;2023-02-28T05:30:30;14.57;;;5.60;;
67278;SDS011;54193;53.746;10.058;2023-02-28T05:33:16;12.75;;;5.68;;
67278;SDS011;54193;53.746;10.058;2023-02-28T05:36:03;15.00;;;5.53;;
67278;SDS011;54193;53.746;10.058;2023-02-28T05:38:49;13.63;;;5.20;;
67278;SDS011;54193;53.746;10.058;2023-02-28T05:41:36;13.55;;;5.10;;
67278;SDS011;54193;53.746;10.058;2023-02-28T05:44:21;10.30;;;4.88;;
67278;SDS011;54193;53.746;10.058;2023-02-28T05:47:07;11.63;;;4.75;;
67278;SDS011;54193;53.746;10.058;2023-02-28T05:49:53;12.90;;;5.40;;
67278;SDS011;54193;53.746;10.058;2023-02-28T05:52:38;12.18;;;5.57;;
67278;SDS011;54193;53.746;10.058;2023-02-28T05:55:24;12.40;;;5.15;;
67278;SDS011;54193;53.746;10.058;2023-02-28T05:58:09;11.13;;;4.80;;
67278;SDS011;54193;53.746;10.058;2023-02-28T06:00:55;14.52;;;5.28;;
67278;SDS011;54193;53.746;10.058;2023-02-28T06:03:45;13.50;;;4.53;;
67278;SDS011;54193;53.746;10.058;2023-02-28T06:06:30;13.30;;;5.00;;
67278;SDS011;54193;53.746;10.058;2023-02-28T06:09:18;11.23;;;4.47;;
67278;SDS011;54193;53.746;10.058;2023-02-28T06:12:05;13.15;;;5.07;;
67278;SDS011;54193;53.746;10.058;2023-02-28T06:14:52;11.52;;;4.65;;
67278;SDS011;54193;53.746;10.058;2023-02-28T06:17:38;13.07;;;4.40;;
67278;SDS011;54193;53.746;10.058;2023-02-28T06:20:24;11.75;;;4.57;;
67278;SDS011;54193;53.746;10.058;2023-02-28T06:23:11;12.00;;;4.78;;
67278;SDS011;54193;53.746;10.058;2023-02-28T06:25:57;14.50;;;4.90;;
67278;SDS011;54193;53.746;10.058;2023-02-28T06:28:43;10.32;;;4.70;;
67278;SDS011;54193;53.746;10.058;2023-02-28T06:31:29;11.20;;;4.50;;
67278;SDS011;54193;53.746;10.058;2023-02-28T06:34:15;12.27;;;5.07;;
67278;SDS011;54193;53.746;10.058;2023-02-28T06:37:02;12.32;;;5.53;;
67278;SDS011;54193;53.746;10.058;2023-02-28T06:39:50;12.23;;;4.72;;
67278;SDS011;54193;53.746;10.058;2023-02-28T06:42:35;13.43;;;4.60;;
67278;SDS011;54193;53.746;10.058;2023-02-28T06:45:21;10.10;;;4.07;;
67278;SDS011;54193;53.746;10.058;2023-02-28T06:48:07;10.43;;;4.45;;
67278;SDS011;54193;53.746;10.058;2023-02-28T06:51:01;9.52;;;4.30;;
67278;SDS011;54193;53.746;10.058;2023-02-28T06:53:50;10.30;;;4.30;;
67278;SDS011;54193;53.746;10.058;2023-02-28T06:56:36;12.18;;;4.72;;
67278;SDS011;54193;53.746;10.058;2023-02-28T06:59:22;16.00;;;4.55;;
67278;SDS011;54193;53.746;10.058;2023-02-28T07:02:07;14.23;;;4.47;;
67278;SDS011;54193;53.746;10.058;2023-02-28T07:04:53;19.92;;;5.25;;
67278;SDS011;54193;53.746;10.058;2023-02-28T07:07:39;18.48;;;5.40;;
67278;SDS011;54193;53.746;10.058;2023-02-28T07:10:30;14.07;;;5.15;;
67278;SDS011;54193;53.746;10.058;2023-02-28T07:13:16;15.30;;;5.30;;
67278;SDS011;54193;53.746;10.058;2023-02-28T07:16:03;14.75;;;6.05;;
67278;SDS011;54193;53.746;10.058;2023-02-28T07:18:53;17.70;;;6.28;;
67278;SDS011;54193;53.746;10.058;2023-02-28T07:21:40;22.27;;;7.47;;
67278;SDS011;54193;53.746;10.058;2023-02-28T07:24:25;18.00;;;6.40;;
67278;SDS011;54193;53.746;10.058;2023-02-28T07:27:13;16.17;;;7.25;;
67278;SDS011;54193;53.746;10.058;2023-02-28T07:30:09;20.77;;;8.20;;
67278;SDS011;54193;53.746;10.058;2023-02-28T07:32:55;15.52;;;7.00;;
67278;SDS011;54193;53.746;10.058;2023-02-28T07:35:41;15.20;;;6.32;;
67278;SDS011;54193;53.746;10.058;2023-02-28T07:38:26;12.68;;;5.95;;
67278;SDS011;54193;53.746;10.058;2023-02-28T07:41:12;14.05;;;6.05;;
67278;SDS011;54193;53.746;10.058;2023-02-28T07:43:58;16.38;;;6.97;;
67278;SDS011;54193;53.746;10.058;2023-02-28T07:46:44;13.25;;;6.63;;
67278;SDS011;54193;53.746;10.058;2023-02-28T07:49:30;16.00;;;7.37;;
67278;SDS011;54193;53.746;10.058;2023-02-28T07:52:17;15.70;;;7.00;;
67278;SDS011;54193;53.746;10.058;2023-02-28T07:55:03;12.93;;;6.40;;
67278;SDS011;54193;53.746;10.058;2023-02-28T07:57:50;14.00;;;6.20;;
67278;SDS011;54193;53.746;10.058;2023-02-28T08:00:36;13.57;;;6.43;;
67278;SDS011;54193;53.746;10.058;2023-02-28T08:03:22;15.18;;;6.93;;
67278;SDS011;54193;53.746;10.058;2023-02-28T08:06:14;14.93;;;6.40;;
67278;SDS011;54193;53.746;10.058;2023-02-28T08:09:03;14.60;;;6.40;;
67278;SDS011;54193;53.746;10.058;2023-02-28T08:11:49;14.50;;;6.45;;
67278;SDS011;54193;53.746;10.058;2023-02-28T08:14:35;12.85;;;6.28;;
67278;SDS011;54193;53.746;10.058;2023-02-28T08:17:21;11.37;;;5.60;;
67278;SDS011;54193;53.746;10.058;2023-02-28T08:20:07;13.48;;;5.65;;
67278;SDS011;54193;53.746;10.058;2023-02-28T08:22:54;11.45;;;5.80;;
67278;SDS011;54193;53.746;10.058;2023-02-28T08:25:41;10.87;;;5.77;;
67278;SDS011;54193;53.746;10.058;2023-02-28T08:28:26;12.07;;;5.47;;
67278;SDS011;54193;53.746;10.058;2023-02-28T08:31:13;14.65;;;5.10;;
67278;SDS011;54193;53.746;10.058;2023-02-28T08:34:07;9.27;;;4.78;;
67278;SDS011;54193;53.746;10.058;2023-02-28T08:36:55;9.00;;;4.45;;
67278;SDS011;54193;53.746;10.058;2023-02-28T08:39:41;8.00;;;3.75;;
67278;SDS011;54193;53.746;10.058;2023-02-28T08:42:26;6.95;;;3.25;;
67278;SDS011;54193;53.746;10.058;2023-02-28T08:45:12;6.63;;;2.20;;
67278;SDS011;54193;53.746;10.058;2023-02-28T08:47:59;6.53;;;3.20;;
67278;SDS011;54193;53.746;10.058;2023-02-28T08:50:54;7.05;;;2.72;;
67278;SDS011;54193;53.746;10.058;2023-02-28T08:53:44;6.67;;;2.70;;
67278;SDS011;54193;53.746;10.058;2023-02-28T08:56:31;5.53;;;2.72;;
67278;SDS011;54193;53.746;10.058;2023-02-28T08:59:16;5.93;;;2.40;;
67278;SDS011;54193;53.746;10.058;2023-02-28T09:02:02;5.90;;;2.70;;
67278;SDS011;54193;53.746;10.058;2023-02-28T09:04:48;5.18;;;2.70;;
67278;SDS011;54193;53.746;10.058;2023-02-28T09:07:34;5.75;;;2.40;;
67278;SDS011;54193;53.746;10.058;2023-02-28T09:10:19;5.40;;;2.30;;
67278;SDS011;54193;53.746;10.058;2023-02-28T09:13:06;4.40;;;2.10;;
67278;SDS011;54193;53.746;10.058;2023-02-28T09:15:53;4.63;;;2.00;;
67278;SDS011;54193;53.746;10.058;2023-02-28T09:18:39;4.50;;;2.10;;
67278;SDS011;54193;53.746;10.058;2023-02-28T09:21:25;4.63;;;2.20;;
67278;SDS011;54193;53.746;10.058;2023-02-28T09:24:11;4.35;;;2.03;;
67278;SDS011;54193;53.746;10.058;2023-02-28T09:26:59;4.00;;;2.10;;
67278;SDS011;54193;53.746;10.058;2023-02-28T09:29:45;5.93;;;2.20;;
67278;SDS011;54193;53.746;10.058;2023-02-28T09:32:30;5.45;;;2.47;;
67278;SDS011;54193;53.746;10.058;2023-02-28T09:35:16;5.88;;;2.00;;
67278;SDS011;54193;53.746;10.058;2023-02-28T09:38:05;4.22;;;2.00;;
67278;SDS011;54193;53.746;10.058;2023-02-28T09:40:53;8.23;;;3.00;;
67278;SDS011;54193;53.746;10.058;2023-02-28T09:43:43;6.60;;;2.90;;
67278;SDS011;54193;53.746;10.058;2023-02-28T09:46:34;5.32;;;2.40;;
67278;SDS011;54193;53.746;10.058;2023-02-28T09:49:28;5.43;;;2.40;;
67278;SDS011;54193;53.746;10.058;2023-02-28T09:52:21;6.25;;;2.10;;
67278;SDS011;54193;53.746;10.058;2023-02-28T09:58:15;5.00;;;2.10;;
67278;SDS011;54193;53.746;10.058;2023-02-28T10:07:45;3.80;;;1.77;;
67278;SDS011;54193;53.746;10.058;2023-02-28T10:10:44;4.73;;;1.80;;
67278;SDS011;54193;53.746;10.058;2023-02-28T10:19:40;5.37;;;1.80;;
67278;SDS011;54193;53.746;10.058;2023-02-28T10:22:41;4.68;;;1.90;;
67278;SDS011;54193;53.746;10.058;2023-02-28T10:25:36;5.50;;;1.95;;
67278;SDS011;54193;53.746;10.058;2023-02-28T10:28:24;5.68;;;1.90;;
67278;SDS011;54193;53.746;10.058;2023-02-28T10:31:11;4.70;;;2.00;;
67278;SDS011;54193;53.746;10.058;2023-02-28T10:34:02;5.00;;;1.92;;
67278;SDS011;54193;53.746;10.058;2023-02-28T10:36:49;3.78;;;1.65;;
67278;SDS011;54193;53.746;10.058;2023-02-28T10:39:45;4.27;;;1.57;;
67278;SDS011;54193;53.746;10.058;2023-02-28T10:42:32;5.72;;;1.90;;
67278;SDS011;54193;53.746;10.058;2023-02-28T10:45:17;5.97;;;1.70;;
67278;SDS011;54193;53.746;10.058;2023-02-28T10:50:52;3.80;;;1.60;;
67278;SDS011;54193;53.746;10.058;2023-02-28T10:56:28;3.80;;;1.70;;
67278;SDS011;54193;53.746;10.058;2023-02-28T11:02:00;5.53;;;2.00;;
67278;SDS011;54193;53.746;10.058;2023-02-28T11:04:46;4.55;;;1.70;;
67278;SDS011;54193;53.746;10.058;2023-02-28T11:07:32;3.90;;;1.60;;
67278;SDS011;54193;53.746;10.058;2023-02-28T11:10:19;5.03;;;1.70;;
67278;SDS011;54193;53.746;10.058;2023-02-28T11:13:13;7.82;;;1.90;;
67278;SDS011;54193;53.746;10.058;2023-02-28T11:16:05;3.93;;;1.80;;
67278;SDS011;54193;53.746;10.058;2023-02-28T11:18:53;3.97;;;1.50;;
67278;SDS011;54193;53.746;10.058;2023-02-28T11:21:40;3.78;;;1.50;;
67278;SDS011;54193;53.746;10.058;2023-02-28T11:24:41;4.22;;;1.70;;
67278;SDS011;54193;53.746;10.058;2023-02-28T11:30:27;3.78;;;1.73;;
67278;SDS011;54193;53.746;10.058;2023-02-28T11:33:28;4.75;;;1.80;;
67278;SDS011;54193;53.746;10.058;2023-02-28T11:36:18;4.40;;;1.50;;
67278;SDS011;54193;53.746;10.058;2023-02-28T11:39:08;3.97;;;1.90;;
67278;SDS011;54193;53.746;10.058;2023-02-28T11:51:00;4.35;;;1.50;;
67278;SDS011;54193;53.746;10.058;2023-02-28T11:56:59;6.30;;;1.73;;
67278;SDS011;54193;53.746;10.058;2023-02-28T11:59:57;3.08;;;1.17;;
67278;SDS011;54193;53.746;10.058;2023-02-28T12:06:06;4.97;;;1.60;;
67278;SDS011;54193;53.746;10.058;2023-02-28T12:09:14;4.38;;;1.50;;
67278;SDS011;54193;53.746;10.058;2023-02-28T12:19:14;4.70;;;1.73;;
67278;SDS011;54193;53.746;10.058;2023-02-28T12:22:05;3.75;;;1.50;;
67278;SDS011;54193;53.746;10.058;2023-02-28T12:27:51;4.45;;;1.65;;
67278;SDS011;54193;53.746;10.058;2023-02-28T12:30:40;5.32;;;1.75;;
67278;SDS011;54193;53.746;10.058;2023-02-28T12:33:33;4.47;;;1.70;;
67278;SDS011;54193;53.746;10.058;2023-02-28T12:36:24;4.47;;;1.83;;
67278;SDS011;54193;53.746;10.058;2023-02-28T12:39:16;4.93;;;1.70;;
67278;SDS011;54193;53.746;10.058;2023-02-28T12:42:13;4.15;;;1.45;;
67278;SDS011;54193;53.746;10.058;2023-02-28T12:45:16;4.60;;;1.67;;
67278;SDS011;54193;53.746;10.058;2023-02-28T12:48:06;4.32;;;1.35;;
67278;SDS011;54193;53.746;10.058;2023-02-28T12:50:56;6.20;;;1.58;;
67278;SDS011;54193;53.746;10.058;2023-02-28T12:59:56;3.75;;;1.70;;
67278;SDS011;54193;53.746;10.058;2023-02-28T13:05:46;5.03;;;1.67;;
67278;SDS011;54193;53.746;10.058;2023-02-28T13:08:59;3.35;;;1.50;;
67278;SDS011;54193;53.746;10.058;2023-02-28T13:11:46;2.90;;;1.15;;
67278;SDS011;54193;53.746;10.058;2023-02-28T13:14:36;3.93;;;1.40;;
67278;SDS011;54193;53.746;10.058;2023-02-28T13:17:23;5.15;;;1.90;;
67278;SDS011;54193;53.746;10.058;2023-02-28T13:20:24;3.92;;;1.63;;
67278;SDS011;54193;53.746;10.058;2023-02-28T13:23:36;4.90;;;1.88;;
67278;SDS011;54193;53.746;10.058;2023-02-28T13:29:27;5.32;;;1.73;;
67278;SDS011;54193;53.746;10.058;2023-02-28T13:32:19;4.78;;;1.50;;
67278;SDS011;54193;53.746;10.058;2023-02-28T13:35:12;3.73;;;1.70;;
67278;SDS011;54193;53.746;10.058;2023-02-28T13:38:09;4.70;;;1.70;;
67278;SDS011;54193;53.746;10.058;2023-02-28T13:49:47;3.45;;;1.40;;
67278;SDS011;54193;53.746;10.058;2023-02-28T13:52:33;2.95;;;0.80;;
67278;SDS011;54193;53.746;10.058;2023-02-28T13:55:31;4.13;;;1.30;;
67278;SDS011;54193;53.746;10.058;2023-02-28T13:58:46;5.13;;;1.67;;
67278;SDS011;54193;53.746;10.058;2023-02-28T14:07:47;4.65;;;1.50;;
67278;SDS011;54193;53.746;10.058;2023-02-28T14:10:37;3.97;;;1.50;;
67278;SDS011;54193;53.746;10.058;2023-02-28T14:16:46;3.10;;;1.35;;
67278;SDS011;54193;53.746;10.058;2023-02-28T14:19:33;4.63;;;1.40;;
67278;SDS011;54193;53.746;10.058;2023-02-28T14:22:38;4.25;;;1.50;;
67278;SDS011;54193;53.746;10.058;2023-02-28T14:26:00;3.40;;;1.30;;
67278;SDS011;54193;53.746;10.058;2023-02-28T14:38:21;4.35;;;1.38;;
67278;SDS011;54193;53.746;10.058;2023-02-28T14:41:18;4.75;;;1.60;;
67278;SDS011;54193;53.746;10.058;2023-02-28T14:47:11;4.93;;;1.70;;
67278;SDS011;54193;53.746;10.058;2023-02-28T14:50:01;3.88;;;1.60;;
67278;SDS011;54193;53.746;10.058;2023-02-28T14:52:52;6.05;;;1.92;;
67278;SDS011;54193;53.746;10.058;2023-02-28T14:55:43;5.20;;;1.70;;
67278;SDS011;54193;53.746;10.058;2023-02-28T14:58:31;5.20;;;1.88;;
67278;SDS011;54193;53.746;10.058;2023-02-28T15:01:19;4.05;;;1.65;;
67278;SDS011;54193;53.746;10.058;2023-02-28T15:04:11;6.00;;;2.30;;
67278;SDS011;54193;53.746;10.058;2023-02-28T15:07:14;5.07;;;2.10;;
67278;SDS011;54193;53.746;10.058;2023-02-28T15:12:59;4.73;;;1.60;;
67278;SDS011;54193;53.746;10.058;2023-02-28T15:15:52;4.90;;;1.95;;
67278;SDS011;54193;53.746;10.058;2023-02-28T15:21:38;4.90;;;2.05;;
67278;SDS011;54193;53.746;10.058;2023-02-28T15:24:34;5.32;;;2.00;;
67278;SDS011;54193;53.746;10.058;2023-02-28T15:27:23;4.05;;;1.83;;
67278;SDS011;54193;53.746;10.058;2023-02-28T15:30:16;7.65;;;2.30;;
67278;SDS011;54193;53.746;10.058;2023-02-28T15:36:30;4.53;;;1.75;;
67278;SDS011;54193;53.746;10.058;2023-02-28T15:39:18;4.22;;;1.77;;
67278;SDS011;54193;53.746;10.058;2023-02-28T15:42:56;4.73;;;2.00;;
67278;SDS011;54193;53.746;10.058;2023-02-28T15:45:27;5.35;;;2.13;;
67278;SDS011;54193;53.746;10.058;2023-02-28T15:48:43;5.47;;;2.08;;
67278;SDS011;54193;53.746;10.058;2023-02-28T15:51:38;5.97;;;2.40;;
67278;SDS011;54193;53.746;10.058;2023-02-28T15:54:26;4.63;;;2.20;;
67278;SDS011;54193;53.746;10.058;2023-02-28T15:57:19;5.70;;;2.10;;
67278;SDS011;54193;53.746;10.058;2023-02-28T16:00:10;4.82;;;1.90;;
67278;SDS011;54193;53.746;10.058;2023-02-28T16:02:58;5.23;;;2.17;;
67278;SDS011;54193;53.746;10.058;2023-02-28T16:05:44;5.30;;;1.98;;
67278;SDS011;54193;53.746;10.058;2023-02-28T16:08:30;5.18;;;1.98;;
67278;SDS011;54193;53.746;10.058;2023-02-28T16:11:16;5.40;;;1.90;;
67278;SDS011;54193;53.746;10.058;2023-02-28T16:14:02;4.70;;;1.90;;
67278;SDS011;54193;53.746;10.058;2023-02-28T16:16:49;4.72;;;2.00;;
67278;SDS011;54193;53.746;10.058;2023-02-28T16:19:37;4.65;;;1.90;;
67278;SDS011;54193;53.746;10.058;2023-02-28T16:22:22;5.30;;;1.90;;
67278;SDS011;54193;53.746;10.058;2023-02-28T16:25:11;5.20;;;1.80;;
67278;SDS011;54193;53.746;10.058;2023-02-28T16:27:58;4.10;;;1.70;;
67278;SDS011;54193;53.746;10.058;2023-02-28T16:30:45;4.30;;;1.80;;
67278;SDS011;54193;53.746;10.058;2023-02-28T16:33:32;4.70;;;1.85;;
67278;SDS011;54193;53.746;10.058;2023-02-28T16:36:21;4.72;;;1.80;;
67278;SDS011;54193;53.746;10.058;2023-02-28T16:39:10;5.03;;;1.90;;
67278;SDS011;54193;53.746;10.058;2023-02-28T16:41:56;4.57;;;1.88;;
67278;SDS011;54193;53.746;10.058;2023-02-28T16:44:41;5.35;;;2.00;;
67278;SDS011;54193;53.746;10.058;2023-02-28T16:47:27;5.88;;;2.30;;
67278;SDS011;54193;53.746;10.058;2023-02-28T16:50:18;5.95;;;2.30;;
67278;SDS011;54193;53.746;10.058;2023-02-28T16:53:05;7.53;;;2.60;;
67278;SDS011;54193;53.746;10.058;2023-02-28T16:55:51;5.72;;;2.50;;
67278;SDS011;54193;53.746;10.058;2023-02-28T16:58:36;7.13;;;2.70;;
67278;SDS011;54193;53.746;10.058;2023-02-28T17:01:22;13.65;;;3.65;;
67278;SDS011;54193;53.746;10.058;2023-02-28T17:04:08;15.45;;;4.80;;
67278;SDS011;54193;53.746;10.058;2023-02-28T17:06:55;12.27;;;3.50;;
67278;SDS011;54193;53.746;10.058;2023-02-28T17:09:41;9.27;;;3.00;;
67278;SDS011;54193;53.746;10.058;2023-02-28T17:12:27;7.28;;;2.75;;
67278;SDS011;54193;53.746;10.058;2023-02-28T17:15:13;7.05;;;2.55;;
67278;SDS011;54193;53.746;10.058;2023-02-28T17:18:00;6.20;;;2.60;;
67278;SDS011;54193;53.746;10.058;2023-02-28T17:20:47;8.23;;;2.53;;
67278;SDS011;54193;53.746;10.058;2023-02-28T17:23:33;6.63;;;2.45;;
67278;SDS011;54193;53.746;10.058;2023-02-28T17:26:19;5.93;;;2.30;;
67278;SDS011;54193;53.746;10.058;2023-02-28T17:29:16;6.32;;;2.50;;
67278;SDS011;54193;53.746;10.058;2023-02-28T17:32:13;5.90;;;2.60;;
67278;SDS011;54193;53.746;10.058;2023-02-28T17:35:00;7.07;;;2.70;;
67278;SDS011;54193;53.746;10.058;2023-02-28T17:37:45;9.00;;;2.70;;
67278;SDS011;54193;53.746;10.058;2023-02-28T17:40:31;6.30;;;2.35;;
67278;SDS011;54193;53.746;10.058;2023-02-28T17:43:19;8.60;;;2.60;;
67278;SDS011;54193;53.746;10.058;2023-02-28T17:46:05;6.40;;;2.28;;
67278;SDS011;54193;53.746;10.058;2023-02-28T17:48:51;5.43;;;2.03;;
67278;SDS011;54193;53.746;10.058;2023-02-28T17:51:38;4.93;;;2.07;;
67278;SDS011;54193;53.746;10.058;2023-02-28T17:54:23;5.40;;;2.33;;
67278;SDS011;54193;53.746;10.058;2023-02-28T17:57:13;5.90;;;2.15;;
67278;SDS011;54193;53.746;10.058;2023-02-28T18:00:00;6.13;;;2.10;;
67278;SDS011;54193;53.746;10.058;2023-02-28T18:02:50;6.78;;;2.38;;
67278;SDS011;54193;53.746;10.058;2023-02-28T18:05:36;6.25;;;2.00;;
67278;SDS011;54193;53.746;10.058;2023-02-28T18:08:22;5.18;;;2.13;;
67278;SDS011;54193;53.746;10.058;2023-02-28T18:11:07;5.37;;;2.03;;
67278;SDS011;54193;53.746;10.058;2023-02-28T18:14:03;8.52;;;2.80;;
67278;SDS011;54193;53.746;10.058;2023-02-28T18:16:49;11.32;;;3.78;;
67278;SDS011;54193;53.746;10.058;2023-02-28T18:19:35;11.37;;;4.20;;
67278;SDS011;54193;53.746;10.058;2023-02-28T18:22:23;11.65;;;4.43;;
67278;SDS011;54193;53.746;10.058;2023-02-28T18:25:09;12.50;;;4.68;;
67278;SDS011;54193;53.746;10.058;2023-02-28T18:28:01;12.38;;;4.65;;
67278;SDS011;54193;53.746;10.058;2023-02-28T18:30:46;13.25;;;5.22;;
67278;SDS011;54193;53.746;10.058;2023-02-28T18:33:32;10.70;;;4.78;;
67278;SDS011;54193;53.746;10.058;2023-02-28T18:36:18;10.73;;;4.40;;
67278;SDS011;54193;53.746;10.058;2023-02-28T18:39:05;13.03;;;4.43;;
67278;SDS011;54193;53.746;10.058;2023-02-28T18:41:50;10.50;;;4.32;;
67278;SDS011;54193;53.746;10.058;2023-02-28T18:44:36;12.07;;;4.90;;
67278;SDS011;54193;53.746;10.058;2023-02-28T18:47:22;11.03;;;4.93;;